sensor_id;sensor_type;location;lat;lon;timestamp;temperature;humidity
21770;DHT22;11046;49.558;8.674;2023-10-08T07:11:09;11.50;99.90
21770;DHT22;11046;49.558;8.674;2023-10-08T07:14:12;11.90;99.90
21770;DHT22;11046;49.558;8.674;2023-10-08T07:17:14;12.30;99.90
21770;DHT22;11046;49.558;8.674;2023-10-08T07:20:20;12.70;99.90
21770;DHT22;11046;49.558;8.674;2023-10-08T07:23:23;13.10;99.90
21770;DHT22;11046;49.558;8.674;2023-10-08T07:26:30;13.60;99.90
21770;DHT22;11046;49.558;8.674;2023-10-08T07:29:36;14.20;99.70
21770;DHT22;11046;49.558;8.674;2023-10-08T07:32:37;14.70;99.10
21770;DHT22;11046;49.558;8.674;2023-10-08T07:35:39;15.20;98.60
21770;DHT22;11046;49.558;8.674;2023-10-08T07:38:41;15.40;98.00
21770;DHT22;11046;49.558;8.674;2023-10-08T07:41:45;15.60;97.40
21770;DHT22;11046;49.558;8.674;2023-10-08T07:44:47;15.70;97.20
21770;DHT22;11046;49.558;8.674;2023-10-08T07:47:50;15.80;96.90
21770;DHT22;11046;49.558;8.674;2023-10-08T07:50:50;15.90;96.60
21770;DHT22;11046;49.558;8.674;2023-10-08T07:53:52;16.10;96.40
21770;DHT22;11046;49.558;8.674;2023-10-08T07:56:58;16.10;96.40
21770;DHT22;11046;49.558;8.674;2023-10-08T08:00:13;16.30;96.20
21770;DHT22;11046;49.558;8.674;2023-10-08T08:03:23;16.50;96.20
21770;DHT22;11046;49.558;8.674;2023-10-08T08:06:25;16.60;96.10
21770;DHT22;11046;49.558;8.674;2023-10-08T08:09:26;16.70;96.00
21770;DHT22;11046;49.558;8.674;2023-10-08T08:12:28;16.80;95.90
21770;DHT22;11046;49.558;8.674;2023-10-08T08:15:32;17.00;96.10
21770;DHT22;11046;49.558;8.674;2023-10-08T08:18:33;17.10;95.40
21770;DHT22;11046;49.558;8.674;2023-10-08T08:21:36;17.10;95.30
21770;DHT22;11046;49.558;8.674;2023-10-08T08:24:37;17.20;95.20
21770;DHT22;11046;49.558;8.674;2023-10-08T08:27:37;17.30;95.00
21770;DHT22;11046;49.558;8.674;2023-10-08T08:30:39;17.40;94.70
21770;DHT22;11046;49.558;8.674;2023-10-08T08:33:41;17.40;94.50
21770;DHT22;11046;49.558;8.674;2023-10-08T08:36:54;17.40;94.40
21770;DHT22;11046;49.558;8.674;2023-10-08T08:39:57;17.50;94.40
21770;DHT22;11046;49.558;8.674;2023-10-08T08:42:59;17.50;94.30
21770;DHT22;11046;49.558;8.674;2023-10-08T08:46:04;17.60;94.10
21770;DHT22;11046;49.558;8.674;2023-10-08T08:49:08;17.60;94.00
21770;DHT22;11046;49.558;8.674;2023-10-08T08:52:08;17.70;94.10
21770;DHT22;11046;49.558;8.674;2023-10-08T08:55:09;17.70;94.00
21770;DHT22;11046;49.558;8.674;2023-10-08T08:58:15;17.70;93.80
21770;DHT22;11046;49.558;8.674;2023-10-08T09:01:17;17.70;93.80
21770;DHT22;11046;49.558;8.674;2023-10-08T09:04:28;17.70;93.70
21770;DHT22;11046;49.558;8.674;2023-10-08T09:07:29;17.90;93.40
21770;DHT22;11046;49.558;8.674;2023-10-08T09:10:31;18.00;93.20
21770;DHT22;11046;49.558;8.674;2023-10-08T09:13:37;18.00;93.10
21770;DHT22;11046;49.558;8.674;2023-10-08T09:16:39;18.10;92.90
21770;DHT22;11046;49.558;8.674;2023-10-08T09:19:39;18.10;92.90
21770;DHT22;11046;49.558;8.674;2023-10-08T09:22:40;18.10;92.90
21770;DHT22;11046;49.558;8.674;2023-10-08T09:25:46;18.00;92.90
21770;DHT22;11046;49.558;8.674;2023-10-08T09:28:50;18.00;93.00
21770;DHT22;11046;49.558;8.674;2023-10-08T09:32:01;18.00;93.00
21770;DHT22;11046;49.558;8.674;2023-10-08T09:35:02;18.10;93.00
21770;DHT22;11046;49.558;8.674;2023-10-08T09:38:07;18.00;92.90
21770;DHT22;11046;49.558;8.674;2023-10-08T09:41:12;18.10;93.00
21770;DHT22;11046;49.558;8.674;2023-10-08T09:44:14;18.30;93.00
21770;DHT22;11046;49.558;8.674;2023-10-08T09:47:21;18.30;92.70
21770;DHT22;11046;49.558;8.674;2023-10-08T09:50:31;18.50;92.30
21770;DHT22;11046;49.558;8.674;2023-10-08T09:53:41;18.60;92.30
21770;DHT22;11046;49.558;8.674;2023-10-08T09:56:43;18.70;92.00
21770;DHT22;11046;49.558;8.674;2023-10-08T09:59:46;18.80;91.80
21770;DHT22;11046;49.558;8.674;2023-10-08T10:02:47;18.80;91.70
21770;DHT22;11046;49.558;8.674;2023-10-08T10:05:49;18.90;91.70
21770;DHT22;11046;49.558;8.674;2023-10-08T10:09:00;18.90;91.50
21770;DHT22;11046;49.558;8.674;2023-10-08T10:12:01;19.00;91.50
21770;DHT22;11046;49.558;8.674;2023-10-08T10:15:01;19.00;91.40
21770;DHT22;11046;49.558;8.674;2023-10-08T10:21:28;19.00;91.40
21770;DHT22;11046;49.558;8.674;2023-10-08T10:24:33;19.10;91.40
21770;DHT22;11046;49.558;8.674;2023-10-08T10:27:36;19.20;91.20
21770;DHT22;11046;49.558;8.674;2023-10-08T10:30:39;19.40;91.00
21770;DHT22;11046;49.558;8.674;2023-10-08T10:33:41;19.40;90.80
21770;DHT22;11046;49.558;8.674;2023-10-08T10:36:44;19.60;90.90
21770;DHT22;11046;49.558;8.674;2023-10-08T10:39:58;19.80;90.70
21770;DHT22;11046;49.558;8.674;2023-10-08T10:43:01;19.90;90.40
21770;DHT22;11046;49.558;8.674;2023-10-08T10:46:02;20.00;90.30
21770;DHT22;11046;49.558;8.674;2023-10-08T10:49:20;19.90;90.30
21770;DHT22;11046;49.558;8.674;2023-10-08T10:52:44;19.90;90.10
21770;DHT22;11046;49.558;8.674;2023-10-08T10:55:46;19.90;90.00
21770;DHT22;11046;49.558;8.674;2023-10-08T10:59:01;20.00;90.10
21770;DHT22;11046;49.558;8.674;2023-10-08T11:02:15;20.10;89.70
21770;DHT22;11046;49.558;8.674;2023-10-08T11:05:34;20.20;89.20
21770;DHT22;11046;49.558;8.674;2023-10-08T11:08:37;20.30;88.90
21770;DHT22;11046;49.558;8.674;2023-10-08T11:11:38;20.30;89.00
21770;DHT22;11046;49.558;8.674;2023-10-08T11:14:46;20.40;88.80
21770;DHT22;11046;49.558;8.674;2023-10-08T11:17:47;20.50;88.10
21770;DHT22;11046;49.558;8.674;2023-10-08T11:20:50;20.50;87.70
21770;DHT22;11046;49.558;8.674;2023-10-08T11:24:05;20.60;87.60
21770;DHT22;11046;49.558;8.674;2023-10-08T11:27:13;20.50;87.50
21770;DHT22;11046;49.558;8.674;2023-10-08T11:30:17;20.40;87.20
21770;DHT22;11046;49.558;8.674;2023-10-08T11:33:18;20.50;86.90
21770;DHT22;11046;49.558;8.674;2023-10-08T11:36:19;20.60;86.90
21770;DHT22;11046;49.558;8.674;2023-10-08T11:39:21;20.70;86.60
21770;DHT22;11046;49.558;8.674;2023-10-08T11:42:22;20.90;86.40
21770;DHT22;11046;49.558;8.674;2023-10-08T11:45:40;21.10;85.80
21770;DHT22;11046;49.558;8.674;2023-10-08T11:48:48;21.20;85.90
21770;DHT22;11046;49.558;8.674;2023-10-08T11:51:51;21.30;85.40
21770;DHT22;11046;49.558;8.674;2023-10-08T11:54:56;21.30;85.30
21770;DHT22;11046;49.558;8.674;2023-10-08T11:57:56;21.30;85.00
21770;DHT22;11046;49.558;8.674;2023-10-08T12:00:57;21.40;84.70
21770;DHT22;11046;49.558;8.674;2023-10-08T12:04:04;21.60;84.40
21770;DHT22;11046;49.558;8.674;2023-10-08T12:07:05;21.60;84.00
21770;DHT22;11046;49.558;8.674;2023-10-08T12:10:08;21.70;83.70
21770;DHT22;11046;49.558;8.674;2023-10-08T12:13:10;21.80;83.20
21770;DHT22;11046;49.558;8.674;2023-10-08T12:16:15;21.90;82.70
21770;DHT22;11046;49.558;8.674;2023-10-08T12:19:18;22.10;82.80
21770;DHT22;11046;49.558;8.674;2023-10-08T12:22:21;22.20;82.10
21770;DHT22;11046;49.558;8.674;2023-10-08T12:25:22;22.30;81.50
21770;DHT22;11046;49.558;8.674;2023-10-08T12:28:24;22.30;81.40
21770;DHT22;11046;49.558;8.674;2023-10-08T12:31:24;22.30;81.10
21770;DHT22;11046;49.558;8.674;2023-10-08T12:34:25;22.40;80.90
21770;DHT22;11046;49.558;8.674;2023-10-08T12:37:30;22.40;80.40
21770;DHT22;11046;49.558;8.674;2023-10-08T12:40:31;22.40;80.00
21770;DHT22;11046;49.558;8.674;2023-10-08T12:43:50;22.50;79.70
21770;DHT22;11046;49.558;8.674;2023-10-08T12:46:54;22.40;79.40
21770;DHT22;11046;49.558;8.674;2023-10-08T12:49:59;22.50;79.30
21770;DHT22;11046;49.558;8.674;2023-10-08T12:52:59;22.50;79.80
21770;DHT22;11046;49.558;8.674;2023-10-08T12:56:05;22.60;80.10
21770;DHT22;11046;49.558;8.674;2023-10-08T12:59:06;22.80;79.60
21770;DHT22;11046;49.558;8.674;2023-10-08T13:02:07;22.90;79.00
21770;DHT22;11046;49.558;8.674;2023-10-08T13:05:11;22.90;79.00
21770;DHT22;11046;49.558;8.674;2023-10-08T13:08:16;23.00;79.10
21770;DHT22;11046;49.558;8.674;2023-10-08T13:11:17;23.00;78.80
21770;DHT22;11046;49.558;8.674;2023-10-08T13:14:22;23.00;78.40
21770;DHT22;11046;49.558;8.674;2023-10-08T13:17:23;23.00;78.00
21770;DHT22;11046;49.558;8.674;2023-10-08T13:20:25;23.10;77.90
21770;DHT22;11046;49.558;8.674;2023-10-08T13:23:27;23.30;77.40
21770;DHT22;11046;49.558;8.674;2023-10-08T13:26:31;23.40;76.90
21770;DHT22;11046;49.558;8.674;2023-10-08T13:29:32;23.60;75.90
21770;DHT22;11046;49.558;8.674;2023-10-08T13:32:33;23.60;76.20
21770;DHT22;11046;49.558;8.674;2023-10-08T13:35:35;23.60;76.20
21770;DHT22;11046;49.558;8.674;2023-10-08T13:38:37;23.40;76.10
21770;DHT22;11046;49.558;8.674;2023-10-08T13:41:38;23.30;76.70
21770;DHT22;11046;49.558;8.674;2023-10-08T13:44:42;23.20;76.50
21770;DHT22;11046;49.558;8.674;2023-10-08T13:47:45;23.10;76.40
21770;DHT22;11046;49.558;8.674;2023-10-08T13:50:48;23.20;76.30
21770;DHT22;11046;49.558;8.674;2023-10-08T13:53:50;23.10;76.30
21770;DHT22;11046;49.558;8.674;2023-10-08T13:56:54;23.10;76.00
21770;DHT22;11046;49.558;8.674;2023-10-08T13:59:55;23.00;75.50
21770;DHT22;11046;49.558;8.674;2023-10-08T14:02:56;23.00;75.80
21770;DHT22;11046;49.558;8.674;2023-10-08T14:05:58;23.00;75.80
21770;DHT22;11046;49.558;8.674;2023-10-08T14:09:04;22.90;75.30
21770;DHT22;11046;49.558;8.674;2023-10-08T14:12:09;22.70;75.20
21770;DHT22;11046;49.558;8.674;2023-10-08T14:15:13;22.60;75.40
21770;DHT22;11046;49.558;8.674;2023-10-08T14:18:15;22.50;75.60
21770;DHT22;11046;49.558;8.674;2023-10-08T14:21:17;22.50;75.70
21770;DHT22;11046;49.558;8.674;2023-10-08T14:24:19;22.50;76.00
21770;DHT22;11046;49.558;8.674;2023-10-08T14:27:20;22.50;76.00
21770;DHT22;11046;49.558;8.674;2023-10-08T14:30:26;22.40;76.10
21770;DHT22;11046;49.558;8.674;2023-10-08T14:33:30;22.40;76.70
21770;DHT22;11046;49.558;8.674;2023-10-08T14:36:33;22.40;77.10
21770;DHT22;11046;49.558;8.674;2023-10-08T14:39:52;22.40;77.40
21770;DHT22;11046;49.558;8.674;2023-10-08T14:43:12;22.50;77.30
21770;DHT22;11046;49.558;8.674;2023-10-08T14:46:16;22.40;77.30
21770;DHT22;11046;49.558;8.674;2023-10-08T14:49:19;22.50;77.20
21770;DHT22;11046;49.558;8.674;2023-10-08T14:52:22;22.50;77.20
21770;DHT22;11046;49.558;8.674;2023-10-08T14:55:23;22.50;77.50
21770;DHT22;11046;49.558;8.674;2023-10-08T14:58:24;22.50;77.80
21770;DHT22;11046;49.558;8.674;2023-10-08T15:01:26;22.40;77.80
21770;DHT22;11046;49.558;8.674;2023-10-08T15:04:26;22.50;77.60
21770;DHT22;11046;49.558;8.674;2023-10-08T15:07:29;22.50;77.00
21770;DHT22;11046;49.558;8.674;2023-10-08T15:10:29;22.50;76.50
21770;DHT22;11046;49.558;8.674;2023-10-08T15:13:31;22.40;77.30
21770;DHT22;11046;49.558;8.674;2023-10-08T15:16:33;22.40;77.50
21770;DHT22;11046;49.558;8.674;2023-10-08T15:19:34;22.30;77.10
21770;DHT22;11046;49.558;8.674;2023-10-08T15:22:35;22.20;76.70
21770;DHT22;11046;49.558;8.674;2023-10-08T15:25:37;22.20;76.70
21770;DHT22;11046;49.558;8.674;2023-10-08T15:28:39;22.10;77.10
21770;DHT22;11046;49.558;8.674;2023-10-08T15:31:40;22.00;77.60
21770;DHT22;11046;49.558;8.674;2023-10-08T15:34:41;21.90;77.80
21770;DHT22;11046;49.558;8.674;2023-10-08T15:37:42;21.70;77.90
21770;DHT22;11046;49.558;8.674;2023-10-08T15:40:43;21.60;77.90
21770;DHT22;11046;49.558;8.674;2023-10-08T15:43:54;21.60;77.90
21770;DHT22;11046;49.558;8.674;2023-10-08T15:46:59;21.50;78.20
21770;DHT22;11046;49.558;8.674;2023-10-08T15:50:00;21.40;78.90
21770;DHT22;11046;49.558;8.674;2023-10-08T15:53:01;21.40;79.40
21770;DHT22;11046;49.558;8.674;2023-10-08T15:56:01;21.40;80.00
21770;DHT22;11046;49.558;8.674;2023-10-08T15:59:02;21.40;80.30
21770;DHT22;11046;49.558;8.674;2023-10-08T16:02:03;21.30;80.40
21770;DHT22;11046;49.558;8.674;2023-10-08T16:05:06;21.30;80.90
21770;DHT22;11046;49.558;8.674;2023-10-08T16:08:08;21.20;81.20
21770;DHT22;11046;49.558;8.674;2023-10-08T16:11:09;21.20;81.50
21770;DHT22;11046;49.558;8.674;2023-10-08T16:14:09;21.20;82.00
21770;DHT22;11046;49.558;8.674;2023-10-08T16:17:11;21.20;82.30
21770;DHT22;11046;49.558;8.674;2023-10-08T16:20:13;21.20;82.50
21770;DHT22;11046;49.558;8.674;2023-10-08T16:23:14;21.20;82.60
21770;DHT22;11046;49.558;8.674;2023-10-08T16:26:17;21.10;83.00
21770;DHT22;11046;49.558;8.674;2023-10-08T16:29:19;21.00;83.80
21770;DHT22;11046;49.558;8.674;2023-10-08T16:32:20;21.00;84.40
21770;DHT22;11046;49.558;8.674;2023-10-08T16:35:22;20.80;84.60
21770;DHT22;11046;49.558;8.674;2023-10-08T16:38:25;20.80;85.40
21770;DHT22;11046;49.558;8.674;2023-10-08T16:41:26;20.60;85.90
21770;DHT22;11046;49.558;8.674;2023-10-08T16:44:27;20.40;86.40
21770;DHT22;11046;49.558;8.674;2023-10-08T16:47:29;20.30;86.70
21770;DHT22;11046;49.558;8.674;2023-10-08T16:50:31;20.20;86.90
21770;DHT22;11046;49.558;8.674;2023-10-08T16:53:32;19.90;87.20
21770;DHT22;11046;49.558;8.674;2023-10-08T16:56:33;19.90;87.50
21770;DHT22;11046;49.558;8.674;2023-10-08T16:59:34;19.80;87.80
21770;DHT22;11046;49.558;8.674;2023-10-08T17:02:37;19.70;88.30
21770;DHT22;11046;49.558;8.674;2023-10-08T17:05:38;19.40;88.50
21770;DHT22;11046;49.558;8.674;2023-10-08T17:08:40;19.30;89.00
21770;DHT22;11046;49.558;8.674;2023-10-08T17:11:42;19.20;89.30
21770;DHT22;11046;49.558;8.674;2023-10-08T17:14:47;19.10;89.60
21770;DHT22;11046;49.558;8.674;2023-10-08T17:17:48;19.00;89.50
21770;DHT22;11046;49.558;8.674;2023-10-08T17:20:48;19.00;89.70
21770;DHT22;11046;49.558;8.674;2023-10-08T17:23:49;19.00;89.80
21770;DHT22;11046;49.558;8.674;2023-10-08T17:26:51;18.90;90.00
21770;DHT22;11046;49.558;8.674;2023-10-08T17:29:52;18.80;90.00
21770;DHT22;11046;49.558;8.674;2023-10-08T17:32:52;18.80;90.00
21770;DHT22;11046;49.558;8.674;2023-10-08T17:35:53;18.80;90.10
21770;DHT22;11046;49.558;8.674;2023-10-08T17:38:54;18.70;90.20
21770;DHT22;11046;49.558;8.674;2023-10-08T17:41:56;18.70;90.30
21770;DHT22;11046;49.558;8.674;2023-10-08T17:44:57;18.70;90.50
21770;DHT22;11046;49.558;8.674;2023-10-08T17:47:59;18.70;90.60
21770;DHT22;11046;49.558;8.674;2023-10-08T17:51:01;18.60;90.60
21770;DHT22;11046;49.558;8.674;2023-10-08T17:54:02;18.60;90.80
21770;DHT22;11046;49.558;8.674;2023-10-08T17:57:05;18.50;90.90
21770;DHT22;11046;49.558;8.674;2023-10-08T18:00:07;18.50;91.00
21770;DHT22;11046;49.558;8.674;2023-10-08T18:03:12;18.50;91.10
21770;DHT22;11046;49.558;8.674;2023-10-08T18:06:14;18.40;91.20
21770;DHT22;11046;49.558;8.674;2023-10-08T18:09:16;18.30;91.30
21770;DHT22;11046;49.558;8.674;2023-10-08T18:12:20;18.30;91.40
21770;DHT22;11046;49.558;8.674;2023-10-08T18:15:22;18.20;91.50
21770;DHT22;11046;49.558;8.674;2023-10-08T18:18:28;18.10;91.70
21770;DHT22;11046;49.558;8.674;2023-10-08T18:21:29;18.00;91.70
21770;DHT22;11046;49.558;8.674;2023-10-08T18:24:30;18.00;91.90
21770;DHT22;11046;49.558;8.674;2023-10-08T18:27:30;17.90;92.10
21770;DHT22;11046;49.558;8.674;2023-10-08T18:30:31;17.80;92.30
21770;DHT22;11046;49.558;8.674;2023-10-08T18:33:37;17.70;92.30
21770;DHT22;11046;49.558;8.674;2023-10-08T18:36:45;17.60;92.50
21770;DHT22;11046;49.558;8.674;2023-10-08T18:39:46;17.40;92.60
21770;DHT22;11046;49.558;8.674;2023-10-08T18:42:50;17.40;92.80
21770;DHT22;11046;49.558;8.674;2023-10-08T18:45:51;17.20;92.90
21770;DHT22;11046;49.558;8.674;2023-10-08T18:48:52;17.20;93.10
21770;DHT22;11046;49.558;8.674;2023-10-08T18:51:52;17.20;93.20
21770;DHT22;11046;49.558;8.674;2023-10-08T18:54:53;17.10;93.20
21770;DHT22;11046;49.558;8.674;2023-10-08T18:57:53;17.00;93.30
21770;DHT22;11046;49.558;8.674;2023-10-08T19:00:54;16.90;93.40
21770;DHT22;11046;49.558;8.674;2023-10-08T19:03:54;16.80;93.50
21770;DHT22;11046;49.558;8.674;2023-10-08T19:06:58;16.70;93.60
21770;DHT22;11046;49.558;8.674;2023-10-08T19:09:59;16.70;93.80
21770;DHT22;11046;49.558;8.674;2023-10-08T19:13:00;16.60;93.90
21770;DHT22;11046;49.558;8.674;2023-10-08T19:16:02;16.50;93.90
21770;DHT22;11046;49.558;8.674;2023-10-08T19:19:08;16.50;94.00
21770;DHT22;11046;49.558;8.674;2023-10-08T19:22:09;16.50;94.10
21770;DHT22;11046;49.558;8.674;2023-10-08T19:25:09;16.40;94.10
21770;DHT22;11046;49.558;8.674;2023-10-08T19:28:14;16.30;94.20
21770;DHT22;11046;49.558;8.674;2023-10-08T19:31:15;16.20;94.40
21770;DHT22;11046;49.558;8.674;2023-10-08T19:34:17;16.10;94.50
21770;DHT22;11046;49.558;8.674;2023-10-08T19:37:19;16.10;94.60
21770;DHT22;11046;49.558;8.674;2023-10-08T19:40:19;16.00;94.70
21770;DHT22;11046;49.558;8.674;2023-10-08T19:43:22;15.90;94.80
21770;DHT22;11046;49.558;8.674;2023-10-08T19:46:23;15.90;94.90
21770;DHT22;11046;49.558;8.674;2023-10-08T19:49:25;15.80;95.10
21770;DHT22;11046;49.558;8.674;2023-10-08T19:52:26;15.70;95.30
21770;DHT22;11046;49.558;8.674;2023-10-08T19:55:26;15.70;95.40
21770;DHT22;11046;49.558;8.674;2023-10-08T19:58:27;15.70;95.40
21770;DHT22;11046;49.558;8.674;2023-10-08T20:01:28;15.60;95.50
21770;DHT22;11046;49.558;8.674;2023-10-08T20:04:28;15.60;95.60
21770;DHT22;11046;49.558;8.674;2023-10-08T20:07:29;15.50;95.70
21770;DHT22;11046;49.558;8.674;2023-10-08T20:10:30;15.50;95.70
21770;DHT22;11046;49.558;8.674;2023-10-08T20:13:31;15.40;95.80
21770;DHT22;11046;49.558;8.674;2023-10-08T20:16:31;15.40;96.00
21770;DHT22;11046;49.558;8.674;2023-10-08T20:19:32;15.30;96.00
21770;DHT22;11046;49.558;8.674;2023-10-08T20:22:33;15.30;96.00
21770;DHT22;11046;49.558;8.674;2023-10-08T20:25:38;15.30;96.10
21770;DHT22;11046;49.558;8.674;2023-10-08T20:28:41;15.30;96.20
21770;DHT22;11046;49.558;8.674;2023-10-08T20:31:42;15.20;96.20
21770;DHT22;11046;49.558;8.674;2023-10-08T20:34:42;15.30;96.30
21770;DHT22;11046;49.558;8.674;2023-10-08T20:37:44;15.20;96.40
21770;DHT22;11046;49.558;8.674;2023-10-08T20:40:46;15.10;96.50
21770;DHT22;11046;49.558;8.674;2023-10-08T20:43:47;15.10;96.70
21770;DHT22;11046;49.558;8.674;2023-10-08T20:46:47;15.10;96.70
21770;DHT22;11046;49.558;8.674;2023-10-08T20:49:48;15.10;96.70
21770;DHT22;11046;49.558;8.674;2023-10-08T20:52:50;15.00;96.80
21770;DHT22;11046;49.558;8.674;2023-10-08T20:55:55;15.00;96.90
21770;DHT22;11046;49.558;8.674;2023-10-08T20:58:56;14.90;96.90
21770;DHT22;11046;49.558;8.674;2023-10-08T21:01:59;14.80;97.00
21770;DHT22;11046;49.558;8.674;2023-10-08T21:04:59;14.90;97.10
21770;DHT22;11046;49.558;8.674;2023-10-08T21:08:00;14.80;97.10
21770;DHT22;11046;49.558;8.674;2023-10-08T21:11:01;14.80;97.20
21770;DHT22;11046;49.558;8.674;2023-10-08T21:14:03;14.70;97.30
21770;DHT22;11046;49.558;8.674;2023-10-08T21:17:04;14.60;97.40
21770;DHT22;11046;49.558;8.674;2023-10-08T21:20:05;14.60;97.50
21770;DHT22;11046;49.558;8.674;2023-10-08T21:23:10;14.60;97.60
21770;DHT22;11046;49.558;8.674;2023-10-08T21:26:17;14.50;97.70
21770;DHT22;11046;49.558;8.674;2023-10-08T21:29:18;14.50;97.80
21770;DHT22;11046;49.558;8.674;2023-10-08T21:32:19;14.40;97.70
21770;DHT22;11046;49.558;8.674;2023-10-08T21:35:20;14.40;97.80
21770;DHT22;11046;49.558;8.674;2023-10-08T21:38:21;14.40;97.90
21770;DHT22;11046;49.558;8.674;2023-10-08T21:41:23;14.30;97.90
21770;DHT22;11046;49.558;8.674;2023-10-08T21:44:24;14.30;98.00
21770;DHT22;11046;49.558;8.674;2023-10-08T21:47:25;14.20;98.10
21770;DHT22;11046;49.558;8.674;2023-10-08T21:50:25;14.20;98.10
21770;DHT22;11046;49.558;8.674;2023-10-08T21:53:26;14.20;98.20
21770;DHT22;11046;49.558;8.674;2023-10-08T21:56:26;14.20;98.30
21770;DHT22;11046;49.558;8.674;2023-10-08T21:59:27;14.10;98.40
21770;DHT22;11046;49.558;8.674;2023-10-08T22:02:43;14.10;98.50
21770;DHT22;11046;49.558;8.674;2023-10-08T22:05:44;14.10;98.70
21770;DHT22;11046;49.558;8.674;2023-10-08T22:08:44;14.10;98.60
21770;DHT22;11046;49.558;8.674;2023-10-08T22:11:46;14.10;98.70
21770;DHT22;11046;49.558;8.674;2023-10-08T22:14:49;14.10;98.70
21770;DHT22;11046;49.558;8.674;2023-10-08T22:17:57;14.10;99.10
